createdAt,value
2023-01-15T00:00:59.176Z,-9
2023-01-15T00:02:05.450Z,-8
2023-01-15T00:03:11.719Z,-9
2023-01-15T00:04:18.006Z,-9
2023-01-15T00:05:24.258Z,-9
2023-01-15T00:06:30.607Z,-8
2023-01-15T00:07:36.840Z,-9
2023-01-15T00:08:43.090Z,-8
2023-01-15T00:09:49.358Z,-7
2023-01-15T00:10:55.613Z,-9
2023-01-15T00:12:00.900Z,-9
2023-01-15T00:13:07.168Z,-7
2023-01-15T00:14:13.473Z,-9
2023-01-15T00:15:19.729Z,-9
2023-01-15T00:16:25.990Z,-7
2023-01-15T00:17:32.264Z,-10
2023-01-15T00:18:38.537Z,-7
2023-01-15T00:19:44.830Z,-8
2023-01-15T00:20:51.079Z,-8
2023-01-15T00:21:57.389Z,-9
2023-01-15T00:23:03.715Z,-8
2023-01-15T00:24:09.897Z,-9
2023-01-15T00:25:16.176Z,-9
2023-01-15T00:26:22.446Z,-9
2023-01-15T00:27:27.733Z,-8
2023-01-15T00:28:33.997Z,-8
2023-01-15T00:29:40.270Z,-9
2023-01-15T00:30:46.562Z,-9
2023-01-15T00:31:52.822Z,-7
2023-01-15T00:32:59.086Z,-8
2023-01-15T00:34:05.383Z,-9
2023-01-15T00:35:11.631Z,-9
2023-01-15T00:36:17.909Z,-7
2023-01-15T00:37:24.198Z,-8
2023-01-15T00:38:30.489Z,-9
2023-01-15T00:39:36.723Z,-8
2023-01-15T00:40:43.009Z,-8
2023-01-15T00:41:48.276Z,-9
2023-01-15T00:42:54.542Z,-9
2023-01-15T00:44:00.824Z,-8
2023-01-15T00:45:07.089Z,-8
2023-01-15T00:46:13.370Z,-7
2023-01-15T00:47:19.653Z,-9
2023-01-15T00:48:25.923Z,-9
2023-01-15T00:49:32.188Z,-8
2023-01-15T00:50:38.456Z,-9
2023-01-15T00:51:44.735Z,-8
2023-01-15T00:52:51.010Z,-7
2023-01-15T00:53:57.268Z,-8
2023-01-15T00:55:03.572Z,-8
2023-01-15T00:56:08.831Z,-8
2023-01-15T00:57:15.110Z,-9
2023-01-15T00:58:21.383Z,-8
2023-01-15T00:59:27.662Z,-8
2023-01-15T01:00:33.909Z,-8
2023-01-15T01:01:40.183Z,-7
2023-01-15T01:02:46.475Z,-8
2023-01-15T01:03:52.727Z,-8
2023-01-15T01:04:59.002Z,-8
2023-01-15T01:06:05.279Z,-9
2023-01-15T01:07:11.539Z,-8
2023-01-15T01:08:17.822Z,-8
2023-01-15T01:09:24.124Z,-8
2023-01-15T01:10:29.380Z,-7
2023-01-15T01:11:35.651Z,-9
2023-01-15T01:12:41.940Z,-8
2023-01-15T01:13:48.191Z,-6
2023-01-15T01:14:54.472Z,-8
2023-01-15T01:16:00.750Z,-8
2023-01-15T01:17:07.060Z,-7
2023-01-15T01:18:12.313Z,-8
2023-01-15T01:19:17.601Z,-8
2023-01-15T01:20:22.894Z,-6
2023-01-15T01:21:28.251Z,-7
2023-01-15T01:22:34.448Z,-6
2023-01-15T01:23:40.731Z,-6
2023-01-15T01:24:47.059Z,-7
2023-01-15T01:25:53.281Z,-8
2023-01-15T01:26:58.566Z,-7
2023-01-15T01:28:04.849Z,-7
2023-01-15T01:29:11.108Z,-8
2023-01-15T01:30:17.387Z,-7
2023-01-15T01:31:23.659Z,-7
2023-01-15T01:32:29.929Z,-8
2023-01-15T01:33:36.204Z,-6
2023-01-15T01:34:42.462Z,-7
2023-01-15T01:35:48.748Z,-7
2023-01-15T01:36:55.027Z,-8
2023-01-15T01:38:01.285Z,-8
2023-01-15T01:39:07.588Z,-6
2023-01-15T01:40:13.822Z,-7
2023-01-15T01:41:19.121Z,-6
2023-01-15T01:42:25.400Z,-8
2023-01-15T01:43:30.687Z,-6
2023-01-15T01:44:35.981Z,-7
2023-01-15T01:45:41.278Z,-7
2023-01-15T01:46:46.563Z,-6
2023-01-15T01:47:52.843Z,-6
2023-01-15T01:48:59.101Z,-6
2023-01-15T01:50:05.375Z,-6
2023-01-15T01:51:11.648Z,-7
2023-01-15T01:52:17.927Z,-7
2023-01-15T01:53:24.202Z,-6
2023-01-15T01:54:30.467Z,-8
2023-01-15T01:55:36.742Z,-6
2023-01-15T01:56:43.015Z,-3
2023-01-15T01:57:49.291Z,-6
2023-01-15T01:58:55.558Z,-6
2023-01-15T02:00:01.824Z,-8
2023-01-15T02:01:07.113Z,-6
2023-01-15T02:02:13.393Z,-6
2023-01-15T02:03:19.661Z,-8
2023-01-15T02:04:25.938Z,-7
2023-01-15T02:05:32.204Z,-6
2023-01-15T02:06:38.474Z,-6
2023-01-15T02:07:44.751Z,-7
2023-01-15T02:08:51.015Z,-6
2023-01-15T02:09:57.326Z,-6
2023-01-15T02:11:03.563Z,-6
2023-01-15T02:12:09.838Z,-6
2023-01-15T02:13:16.103Z,-3
2023-01-15T02:14:22.390Z,-6
2023-01-15T02:15:27.671Z,-6
2023-01-15T02:16:33.930Z,-7
2023-01-15T02:17:40.214Z,-7
2023-01-15T02:18:46.487Z,-6
2023-01-15T02:19:52.760Z,-9
2023-01-15T02:20:59.028Z,-6
2023-01-15T02:22:05.303Z,-7
2023-01-15T02:23:11.587Z,-7
2023-01-15T02:24:17.838Z,-6
2023-01-15T02:25:24.123Z,-6
2023-01-15T02:26:30.400Z,-7
2023-01-15T02:27:36.668Z,-6
2023-01-15T02:28:42.925Z,-7
2023-01-15T02:29:48.213Z,-7
2023-01-15T02:30:54.490Z,-7
2023-01-15T02:32:00.760Z,-6
2023-01-15T02:33:07.035Z,-7
2023-01-15T02:34:13.305Z,-6
2023-01-15T02:35:19.575Z,-7
2023-01-15T02:36:25.859Z,-6
2023-01-15T02:37:32.112Z,-6
2023-01-15T02:38:38.395Z,-7
2023-01-15T02:39:44.672Z,-8
2023-01-15T02:40:50.934Z,-6
2023-01-15T02:41:57.207Z,-6
2023-01-15T02:43:03.484Z,-6
2023-01-15T02:44:09.794Z,-5
2023-01-15T02:45:15.074Z,-6
2023-01-15T02:46:21.317Z,-3
2023-01-15T02:47:27.650Z,-6
2023-01-15T02:48:33.854Z,-6
2023-01-15T02:49:40.129Z,-6
2023-01-15T02:50:46.397Z,-6
2023-01-15T02:51:52.668Z,-6
2023-01-15T02:52:58.938Z,-6
2023-01-15T02:54:05.304Z,-7
2023-01-15T02:55:11.494Z,-6
2023-01-15T02:56:17.758Z,-6
2023-01-15T02:57:24.045Z,-7
2023-01-15T02:58:30.334Z,-6
2023-01-15T02:59:35.594Z,-6
2023-01-15T03:00:41.863Z,-6
2023-01-15T03:01:48.134Z,-6
2023-01-15T03:02:54.406Z,-4
2023-01-15T03:04:00.670Z,-5
2023-01-15T03:05:06.950Z,-4
2023-01-15T03:06:13.217Z,-3
2023-01-15T03:07:19.493Z,-5
2023-01-15T03:08:25.768Z,-4
2023-01-15T03:09:32.032Z,-3
2023-01-15T03:10:38.310Z,-4
2023-01-15T03:11:44.580Z,-5
2023-01-15T03:12:50.867Z,-4
2023-01-15T03:13:56.131Z,-6
2023-01-15T03:15:02.464Z,-6
2023-01-15T03:16:08.689Z,-5
2023-01-15T03:17:14.948Z,-4
2023-01-15T03:18:21.220Z,-5
2023-01-15T03:19:27.488Z,-5
2023-01-15T03:20:33.771Z,-5
2023-01-15T03:21:40.044Z,-4
2023-01-15T03:22:46.314Z,-4
2023-01-15T03:23:52.596Z,-4
2023-01-15T03:24:58.859Z,-6
2023-01-15T03:26:05.126Z,-4
2023-01-15T03:27:11.402Z,-5
2023-01-15T03:28:16.679Z,-4
2023-01-15T03:29:22.979Z,-4
2023-01-15T03:30:29.242Z,-4
2023-01-15T03:31:35.506Z,-5
2023-01-15T03:32:41.856Z,-4
2023-01-15T03:33:48.058Z,-5
2023-01-15T03:34:54.314Z,-5
2023-01-15T03:36:00.599Z,-5
2023-01-15T03:37:06.881Z,-5
2023-01-15T03:38:13.132Z,-4
2023-01-15T03:39:19.468Z,-4
2023-01-15T03:40:25.677Z,-6
2023-01-15T03:41:32.019Z,-4
2023-01-15T03:42:37.254Z,-5
2023-01-15T03:43:43.523Z,-4
2023-01-15T03:44:49.777Z,-3
2023-01-15T03:45:56.078Z,-5
2023-01-15T03:47:02.325Z,-5
2023-01-15T03:48:08.603Z,-4
2023-01-15T03:49:14.885Z,-4
2023-01-15T03:50:21.163Z,-5
2023-01-15T03:51:27.413Z,-3
2023-01-15T03:52:33.682Z,-6
2023-01-15T03:53:40.131Z,-5
2023-01-15T03:54:46.222Z,-5
2023-01-15T03:55:52.501Z,-3
2023-01-15T03:56:57.803Z,-5
2023-01-15T03:58:04.059Z,-4
2023-01-15T03:59:10.334Z,-3
2023-01-15T04:00:16.636Z,-4
2023-01-15T04:01:22.881Z,-3
2023-01-15T04:02:29.213Z,-3
2023-01-15T04:03:35.412Z,-3
2023-01-15T04:04:41.732Z,-3
2023-01-15T04:05:47.968Z,-3
2023-01-15T04:06:54.231Z,-4
2023-01-15T04:08:00.599Z,-3
2023-01-15T04:09:06.777Z,-3
2023-01-15T04:10:13.103Z,-4
2023-01-15T04:11:18.335Z,-2
2023-01-15T04:12:24.669Z,-3
2023-01-15T04:13:30.918Z,-3
2023-01-15T04:14:37.150Z,-3
2023-01-15T04:15:43.432Z,-3
2023-01-15T04:16:49.695Z,-3
2023-01-15T04:17:56.043Z,-4
2023-01-15T04:19:02.239Z,-3
2023-01-15T04:20:08.554Z,-3
2023-01-15T04:21:14.778Z,-3
2023-01-15T04:22:21.068Z,-3
2023-01-15T04:23:27.361Z,-3
2023-01-15T04:24:33.654Z,-3
2023-01-15T04:25:38.969Z,-3
2023-01-15T04:26:45.155Z,-3
2023-01-15T04:27:50.454Z,-3
2023-01-15T04:28:55.745Z,-3
2023-01-15T04:30:02.019Z,-3
2023-01-15T04:31:07.316Z,-3
2023-01-15T04:32:12.700Z,-2
2023-01-15T04:33:18.867Z,-3
2023-01-15T04:34:25.145Z,-3
2023-01-15T04:35:31.416Z,-3
2023-01-15T04:36:37.681Z,-2
2023-01-15T04:37:43.953Z,-3
2023-01-15T04:38:50.295Z,-2
2023-01-15T04:39:56.505Z,-3
2023-01-15T04:41:02.849Z,-4
2023-01-15T04:42:09.096Z,-3
2023-01-15T04:43:15.318Z,-3
2023-01-15T04:44:21.591Z,-3
2023-01-15T04:45:27.884Z,-3
2023-01-15T04:46:33.150Z,-3
2023-01-15T04:47:39.422Z,-3
2023-01-15T04:48:45.813Z,-3
2023-01-15T04:50:58.239Z,-3
2023-01-15T04:53:10.797Z,-2
2023-01-15T04:54:17.058Z,-3
2023-01-15T04:55:23.344Z,-3
2023-01-15T04:56:29.610Z,-4
2023-01-15T04:57:35.867Z,-1
2023-01-15T04:58:42.135Z,-1
2023-01-15T04:59:48.414Z,-3
2023-01-15T05:00:53.704Z,-3
2023-01-15T05:01:59.976Z,-2
2023-01-15T05:03:06.270Z,-3
2023-01-15T05:04:12.513Z,-3
2023-01-15T05:05:18.796Z,-3
2023-01-15T05:07:31.351Z,-3
2023-01-15T05:08:36.629Z,-3
2023-01-15T05:09:42.893Z,-4
2023-01-15T05:10:49.164Z,-3
2023-01-15T05:11:55.441Z,-2
2023-01-15T05:13:01.717Z,-4
2023-01-15T05:14:07.983Z,-3
2023-01-15T05:15:14.334Z,-3
2023-01-15T05:16:20.521Z,-3
2023-01-15T05:17:26.798Z,-3
2023-01-15T05:18:33.072Z,-3
2023-01-15T05:19:39.330Z,-3
2023-01-15T05:20:45.614Z,-3
2023-01-15T05:21:51.932Z,-2
2023-01-15T05:22:57.195Z,-3
2023-01-15T05:24:03.437Z,-2
2023-01-15T05:25:09.717Z,-3
2023-01-15T05:26:15.992Z,-3
2023-01-15T05:27:22.272Z,-3
2023-01-15T05:28:28.524Z,-3
2023-01-15T05:29:34.802Z,-3
2023-01-15T05:30:41.104Z,-3
2023-01-15T05:31:47.346Z,-3
2023-01-15T05:32:53.629Z,-2
2023-01-15T05:33:59.891Z,-1
2023-01-15T05:35:06.160Z,-1
2023-01-15T05:36:12.433Z,-2
2023-01-15T05:37:17.724Z,-4
2023-01-15T05:38:23.989Z,-3
2023-01-15T05:40:36.541Z,-1
2023-01-15T05:41:42.808Z,-3
2023-01-15T05:42:49.087Z,-3
2023-01-15T05:43:55.350Z,-2
2023-01-15T05:45:01.621Z,-2
2023-01-15T05:46:07.896Z,-2
2023-01-15T05:47:14.172Z,-2
2023-01-15T05:48:20.437Z,-3
2023-01-15T05:49:26.703Z,-1
2023-01-15T05:50:32.979Z,-2
2023-01-15T05:51:38.277Z,-3
2023-01-15T05:52:44.544Z,-2
2023-01-15T05:53:50.834Z,-3
2023-01-15T05:54:57.090Z,-2
2023-01-15T05:56:03.376Z,-3
2023-01-15T05:57:09.626Z,-1
2023-01-15T05:58:15.899Z,-2
2023-01-15T05:59:22.170Z,-3
2023-01-15T06:00:28.441Z,-1
2023-01-15T06:01:34.729Z,-2
2023-01-15T06:02:40.992Z,-2
2023-01-15T06:03:47.267Z,-1
2023-01-15T06:04:53.527Z,-2
2023-01-15T06:05:58.860Z,-2
2023-01-15T06:07:05.166Z,-1
2023-01-15T06:08:11.380Z,-1
2023-01-15T06:09:17.630Z,-1
2023-01-15T06:10:23.908Z,-1
2023-01-15T06:11:30.197Z,0
2023-01-15T06:12:36.467Z,0
2023-01-15T06:13:42.728Z,0
2023-01-15T06:14:48.999Z,0
2023-01-15T06:15:55.265Z,-1
2023-01-15T06:17:00.573Z,1
2023-01-15T06:18:05.851Z,-2
2023-01-15T06:19:12.124Z,0
2023-01-15T06:20:18.391Z,0
2023-01-15T06:21:24.671Z,0
2023-01-15T06:22:31.064Z,0
2023-01-15T06:23:37.200Z,-1
2023-01-15T06:24:43.473Z,0
2023-01-15T06:25:49.751Z,0
2023-01-15T06:26:56.024Z,0
2023-01-15T06:28:02.306Z,-1
2023-01-15T06:29:08.574Z,0
2023-01-15T06:30:14.867Z,0
2023-01-15T06:31:21.113Z,0
2023-01-15T06:32:26.400Z,0
2023-01-15T06:33:31.704Z,0
2023-01-15T06:34:36.992Z,0
2023-01-15T06:35:43.269Z,-1
2023-01-15T06:36:49.544Z,-1
2023-01-15T06:37:55.804Z,-1
2023-01-15T06:39:02.080Z,-3
2023-01-15T06:40:08.345Z,0
2023-01-15T06:41:14.625Z,0
2023-01-15T06:42:20.901Z,0
2023-01-15T06:43:27.202Z,0
2023-01-15T06:44:33.441Z,0
2023-01-15T06:45:39.717Z,0
2023-01-15T06:46:46.006Z,-1
2023-01-15T06:47:52.251Z,0
2023-01-15T06:48:57.541Z,0
2023-01-15T06:50:03.860Z,0
2023-01-15T06:51:10.089Z,0
2023-01-15T06:52:16.356Z,0
2023-01-15T06:53:22.632Z,0
2023-01-15T06:54:28.899Z,-1
2023-01-15T06:55:35.172Z,-1
2023-01-15T06:56:41.441Z,-1
2023-01-15T06:57:47.735Z,-1
2023-01-15T06:58:53.987Z,-2
2023-01-15T07:00:00.407Z,-3
2023-01-15T07:01:06.600Z,-1
2023-01-15T07:02:12.809Z,0
2023-01-15T07:03:19.177Z,-3
2023-01-15T07:04:24.369Z,-4
2023-01-15T07:05:30.732Z,-4
2023-01-15T07:06:36.966Z,-3
2023-01-15T07:07:43.178Z,-1
2023-01-15T07:08:49.445Z,-3
2023-01-15T07:09:55.803Z,-1
2023-01-15T07:11:02.101Z,-2
2023-01-15T07:12:08.343Z,-3
2023-01-15T07:13:14.531Z,-2
2023-01-15T07:14:20.870Z,-3
2023-01-15T07:15:27.110Z,-3
2023-01-15T07:16:33.352Z,-2
2023-01-15T07:17:39.619Z,-2
2023-01-15T07:18:44.901Z,-1
2023-01-15T07:19:51.184Z,-3
2023-01-15T07:20:57.457Z,-2
2023-01-15T07:22:03.838Z,-2
2023-01-15T07:23:10.005Z,-2
2023-01-15T07:24:16.276Z,-2
2023-01-15T07:25:22.607Z,-3
2023-01-15T07:26:28.811Z,-1
2023-01-15T07:27:35.093Z,0
2023-01-15T07:28:41.399Z,-2
2023-01-15T07:29:47.762Z,-3
2023-01-15T07:30:53.901Z,-2
2023-01-15T07:32:00.227Z,-3
2023-01-15T07:33:05.570Z,-1
2023-01-15T07:34:11.736Z,-3
2023-01-15T07:35:18.000Z,-3
2023-01-15T07:36:24.271Z,-3
2023-01-15T07:37:30.547Z,-1
2023-01-15T07:38:36.817Z,-3
2023-01-15T07:39:43.104Z,-3
2023-01-15T07:40:49.364Z,-3
2023-01-15T07:41:55.632Z,-3
2023-01-15T07:43:01.918Z,-3
2023-01-15T07:44:08.178Z,-4
2023-01-15T07:45:14.444Z,-3
2023-01-15T07:46:20.717Z,-3
2023-01-15T07:47:26.012Z,-3
2023-01-15T07:48:32.273Z,-4
2023-01-15T07:49:38.556Z,-2
2023-01-15T07:50:44.821Z,-2
2023-01-15T07:51:51.107Z,-3
2023-01-15T07:52:57.370Z,-3
2023-01-15T07:54:03.629Z,-2
2023-01-15T07:55:09.913Z,-3
2023-01-15T07:56:16.177Z,-2
2023-01-15T07:57:22.457Z,-3
2023-01-15T07:58:28.734Z,-3
2023-01-15T07:59:35.035Z,-3
2023-01-15T08:00:41.265Z,-3
2023-01-15T08:01:46.552Z,-3
2023-01-15T08:02:52.907Z,-3
2023-01-15T08:03:59.144Z,-3
2023-01-15T08:05:05.531Z,-3
2023-01-15T08:06:11.647Z,-3
2023-01-15T08:07:17.932Z,-3
2023-01-15T08:08:24.198Z,-3
2023-01-15T08:09:30.455Z,-6
2023-01-15T08:10:36.736Z,-4
2023-01-15T08:11:43.013Z,-3
2023-01-15T08:12:49.342Z,-4
2023-01-15T08:13:55.539Z,-3
2023-01-15T08:15:01.823Z,-3
2023-01-15T08:16:07.099Z,-4
2023-01-15T08:17:13.368Z,-4
2023-01-15T08:18:19.721Z,-4
2023-01-15T08:19:25.915Z,-4
2023-01-15T08:20:31.215Z,-6
2023-01-15T08:21:36.534Z,-5
2023-01-15T08:22:41.857Z,-6
2023-01-15T08:23:47.138Z,-6
2023-01-15T08:24:53.410Z,-7
2023-01-15T08:25:59.682Z,-7
2023-01-15T08:27:05.903Z,-8
2023-01-15T08:28:12.208Z,-8
2023-01-15T08:29:18.501Z,-8
2023-01-15T08:30:24.839Z,-11
2023-01-15T08:31:31.008Z,-9
2023-01-15T08:32:37.262Z,-9
2023-01-15T08:33:43.535Z,-8
2023-01-15T08:34:49.800Z,-9
2023-01-15T08:35:56.140Z,-8
2023-01-15T08:37:02.368Z,-9
2023-01-15T08:38:07.675Z,-9
2023-01-15T08:39:13.912Z,-9
2023-01-15T08:40:20.187Z,-9
2023-01-15T08:41:26.453Z,-9
2023-01-15T08:42:32.725Z,-11
2023-01-15T08:43:38.997Z,-12
2023-01-15T08:44:45.274Z,-9
2023-01-15T08:45:50.570Z,-11
2023-01-15T08:46:55.860Z,-11
2023-01-15T08:48:02.183Z,-10
2023-01-15T08:49:07.451Z,-10
2023-01-15T08:50:12.795Z,-10
2023-01-15T08:51:19.051Z,-12
2023-01-15T08:52:25.324Z,-11
2023-01-15T08:53:31.639Z,-11
2023-01-15T08:54:37.846Z,-11
2023-01-15T08:55:44.082Z,-11
2023-01-15T08:56:50.356Z,-9
2023-01-15T08:57:56.626Z,-11
2023-01-15T08:59:02.902Z,-11
2023-01-15T09:00:09.168Z,-12
2023-01-15T09:01:15.440Z,-12
2023-01-15T09:02:21.716Z,-12
2023-01-15T09:03:27.996Z,-12
2023-01-15T09:04:33.290Z,-12
2023-01-15T09:05:39.666Z,-12
2023-01-15T09:06:45.805Z,-12
2023-01-15T09:07:52.101Z,-11
2023-01-15T09:08:58.360Z,-12
2023-01-15T09:10:04.676Z,-12
2023-01-15T09:11:10.921Z,-12
2023-01-15T09:12:16.206Z,-14
2023-01-15T09:13:21.488Z,-14
2023-01-15T09:14:26.785Z,-12
2023-01-15T09:15:32.092Z,-15
2023-01-15T09:16:38.387Z,-13
2023-01-15T09:17:44.637Z,-13
2023-01-15T09:18:50.893Z,-15
2023-01-15T09:19:57.169Z,-13
2023-01-15T09:21:03.430Z,-14
2023-01-15T09:22:09.720Z,-14
2023-01-15T09:23:15.978Z,-13
2023-01-15T09:24:22.250Z,-14
2023-01-15T09:25:28.628Z,-13
2023-01-15T09:26:34.813Z,-12
2023-01-15T09:27:41.132Z,-14
2023-01-15T09:28:47.342Z,-15
2023-01-15T09:29:52.689Z,-15
2023-01-15T09:30:59.015Z,-15
2023-01-15T09:32:05.165Z,-14
2023-01-15T09:33:11.451Z,-14
2023-01-15T09:34:17.705Z,-13
2023-01-15T09:35:23.980Z,-15
2023-01-15T09:36:30.278Z,-13
2023-01-15T09:37:35.614Z,-13
2023-01-15T09:38:40.936Z,-13
2023-01-15T09:39:46.154Z,-12
2023-01-15T09:40:51.532Z,-13
2023-01-15T09:41:57.708Z,-13
2023-01-15T09:43:03.976Z,-14
2023-01-15T09:44:10.244Z,-13
2023-01-15T09:45:16.582Z,-13
2023-01-15T09:46:22.820Z,-14
2023-01-15T09:47:29.104Z,-14
2023-01-15T09:48:35.395Z,-14
2023-01-15T09:49:41.656Z,-14
2023-01-15T09:50:47.914Z,-13
2023-01-15T09:51:54.160Z,-15
2023-01-15T09:53:00.436Z,-15
2023-01-15T09:54:06.753Z,-14
2023-01-15T09:55:12.120Z,-14
2023-01-15T09:56:18.256Z,-12
2023-01-15T09:57:24.651Z,-15
2023-01-15T09:58:30.964Z,-14
2023-01-15T09:59:37.084Z,-12
2023-01-15T10:00:43.413Z,-14
2023-01-15T10:01:49.619Z,-15
2023-01-15T10:02:54.966Z,-14
2023-01-15T10:04:00.344Z,-14
2023-01-15T10:05:06.482Z,-14
2023-01-15T10:06:11.774Z,-14
2023-01-15T10:07:17.069Z,-15
2023-01-15T10:08:23.415Z,-14
2023-01-15T10:09:29.633Z,-14
2023-01-15T10:10:35.971Z,-13
2023-01-15T10:11:42.164Z,-14
2023-01-15T10:12:48.468Z,-14
2023-01-15T10:13:54.702Z,-15
2023-01-15T10:15:01.031Z,-14
2023-01-15T10:16:07.235Z,-15
2023-01-15T10:17:13.522Z,-14
2023-01-15T10:18:19.816Z,-14
2023-01-15T10:19:26.075Z,-14
2023-01-15T10:20:32.324Z,-15
2023-01-15T10:21:37.630Z,-15
2023-01-15T10:22:43.885Z,-15
2023-01-15T10:23:50.170Z,-14
2023-01-15T10:24:56.455Z,-15
2023-01-15T10:26:02.720Z,-15
2023-01-15T10:27:08.978Z,-15
2023-01-15T10:28:15.290Z,-15
2023-01-15T10:29:20.620Z,-14
2023-01-15T10:30:25.851Z,-14
2023-01-15T10:31:32.110Z,-13
2023-01-15T10:32:38.377Z,-15
2023-01-15T10:33:44.661Z,-14
2023-01-15T10:34:50.928Z,-14
2023-01-15T10:35:57.205Z,-14
2023-01-15T10:37:03.467Z,-14
2023-01-15T10:38:09.749Z,-14
2023-01-15T10:39:16.010Z,-15
2023-01-15T10:40:22.282Z,-14
2023-01-15T10:41:28.564Z,-14
2023-01-15T10:42:34.826Z,-13
2023-01-15T10:43:41.109Z,-15
2023-01-15T10:44:46.386Z,-15
2023-01-15T10:45:52.666Z,-15
2023-01-15T10:46:58.946Z,-14
2023-01-15T10:48:05.262Z,-15
2023-01-15T10:49:11.486Z,-13
2023-01-15T10:50:17.750Z,-14
2023-01-15T10:51:24.019Z,-14
2023-01-15T10:52:29.328Z,-15
2023-01-15T10:53:34.677Z,-14
2023-01-15T10:54:39.907Z,-14
2023-01-15T10:55:45.192Z,-15
2023-01-15T10:56:51.465Z,-14
2023-01-15T10:57:57.738Z,-13
2023-01-15T10:59:04.010Z,-15
2023-01-15T11:00:10.287Z,-13
2023-01-15T11:01:16.549Z,-14
2023-01-15T11:02:22.822Z,-15
2023-01-15T11:03:29.151Z,-14
2023-01-15T11:04:35.365Z,-14
2023-01-15T11:05:41.644Z,-15
2023-01-15T11:06:47.912Z,-14
2023-01-15T11:07:54.192Z,-13
2023-01-15T11:09:00.463Z,-14
2023-01-15T11:10:05.743Z,-15
2023-01-15T11:11:12.012Z,-15
2023-01-15T11:12:18.336Z,-13
2023-01-15T11:13:24.565Z,-14
2023-01-15T11:14:30.893Z,-14
2023-01-15T11:15:37.232Z,-15
2023-01-15T11:16:43.382Z,-14
2023-01-15T11:17:48.790Z,-15
2023-01-15T11:18:53.964Z,-14
2023-01-15T11:19:59.320Z,-14
2023-01-15T11:21:04.686Z,-15
2023-01-15T11:22:10.846Z,-15
2023-01-15T11:23:17.198Z,-15
2023-01-15T11:24:23.374Z,-14
2023-01-15T11:25:29.649Z,-15
2023-01-15T11:26:35.913Z,-14
2023-01-15T11:27:42.183Z,-15
2023-01-15T11:28:48.453Z,-15
2023-01-15T11:29:54.826Z,-15
2023-01-15T11:31:01.088Z,-15
2023-01-15T11:32:07.333Z,-15
2023-01-15T11:33:13.534Z,-15
2023-01-15T11:34:19.817Z,-14
2023-01-15T11:35:25.108Z,-15
2023-01-15T11:36:31.420Z,-15
2023-01-15T11:37:37.717Z,-15
2023-01-15T11:38:43.932Z,-15
2023-01-15T11:39:50.194Z,-16
2023-01-15T11:40:56.466Z,-15
2023-01-15T11:42:02.745Z,-15
2023-01-15T11:43:08.040Z,-15
2023-01-15T11:44:13.324Z,-15
2023-01-15T11:45:18.634Z,-15
2023-01-15T11:46:23.995Z,-16
2023-01-15T11:47:30.195Z,-16
2023-01-15T11:48:36.461Z,-15
2023-01-15T11:49:42.824Z,-15
2023-01-15T11:50:49.021Z,-17
2023-01-15T11:51:55.288Z,-15
2023-01-15T11:53:01.576Z,-16
2023-01-15T11:54:07.874Z,-17
2023-01-15T11:55:14.107Z,-17
2023-01-15T11:56:20.376Z,-15
2023-01-15T11:57:26.631Z,-17
2023-01-15T11:58:32.903Z,-16
2023-01-15T11:59:39.176Z,-16
2023-01-15T12:00:44.460Z,-16
2023-01-15T12:01:50.737Z,-17
2023-01-15T12:02:57.034Z,-17
2023-01-15T12:04:03.285Z,-17
2023-01-15T12:05:09.552Z,-16
2023-01-15T12:06:15.838Z,-16
2023-01-15T12:07:22.101Z,-18
2023-01-15T12:08:27.403Z,-17
2023-01-15T12:09:32.753Z,-17
2023-01-15T12:10:37.980Z,-18
2023-01-15T12:11:43.313Z,-18
2023-01-15T12:12:49.538Z,-18
2023-01-15T12:13:55.812Z,-17
2023-01-15T12:15:02.085Z,-17
2023-01-15T12:16:08.371Z,-17
2023-01-15T12:17:14.630Z,-18
2023-01-15T12:18:20.983Z,-18
2023-01-15T12:19:27.232Z,-18
2023-01-15T12:20:33.549Z,-18
2023-01-15T12:21:39.717Z,-18
2023-01-15T12:22:46.003Z,-19
2023-01-15T12:23:52.261Z,-18
2023-01-15T12:24:58.533Z,-18
2023-01-15T12:26:03.928Z,-18
2023-01-15T12:27:10.098Z,-18
2023-01-15T12:28:16.359Z,-18
2023-01-15T12:29:22.695Z,-18
2023-01-15T12:30:28.927Z,-18
2023-01-15T12:31:34.205Z,-18
2023-01-15T12:32:40.494Z,-19
2023-01-15T12:33:45.852Z,-19
2023-01-15T12:34:51.060Z,-19
2023-01-15T12:35:57.380Z,-19
2023-01-15T12:37:02.632Z,-19
2023-01-15T12:38:08.050Z,-19
2023-01-15T12:39:14.220Z,-19
2023-01-15T12:40:20.469Z,-19
2023-01-15T12:41:26.742Z,-18
2023-01-15T12:42:33.015Z,-18
2023-01-15T12:43:39.289Z,-18
2023-01-15T12:44:45.557Z,-18
2023-01-15T12:45:51.846Z,-19
2023-01-15T12:46:58.103Z,-17
2023-01-15T12:48:04.373Z,-18
2023-01-15T12:49:10.661Z,-19
2023-01-15T12:50:16.915Z,-20
2023-01-15T12:51:23.215Z,-18
2023-01-15T12:52:28.482Z,-19
2023-01-15T12:53:34.910Z,-20
2023-01-15T12:54:41.122Z,-18
2023-01-15T12:55:47.355Z,-19
2023-01-15T12:56:53.564Z,-19
2023-01-15T12:57:59.937Z,-18
2023-01-15T12:59:06.189Z,-19
2023-01-15T13:00:12.377Z,-18
2023-01-15T13:01:18.672Z,-18
2023-01-15T13:02:24.923Z,-18
2023-01-15T13:03:31.208Z,-18
2023-01-15T13:04:37.469Z,-19
2023-01-15T13:05:43.793Z,-18
2023-01-15T13:06:49.186Z,-19
2023-01-15T13:07:55.292Z,-18
2023-01-15T13:09:01.580Z,-18
2023-01-15T13:10:07.880Z,-19
2023-01-15T13:11:14.200Z,-19
2023-01-15T13:12:20.396Z,-19
2023-01-15T13:13:26.663Z,-18
2023-01-15T13:14:32.930Z,-19
2023-01-15T13:15:39.205Z,-19
2023-01-15T13:16:45.483Z,-19
2023-01-15T13:17:51.745Z,-20
2023-01-15T13:18:58.026Z,-18
2023-01-15T13:20:04.307Z,-19
2023-01-15T13:21:09.582Z,-20
2023-01-15T13:22:14.893Z,-21
2023-01-15T13:23:20.182Z,-20
2023-01-15T13:24:25.511Z,-20
2023-01-15T13:25:30.761Z,-19
2023-01-15T13:26:37.175Z,-20
2023-01-15T13:27:43.335Z,-21
2023-01-15T13:28:49.574Z,-20
2023-01-15T13:29:55.842Z,-21
2023-01-15T13:31:02.183Z,-20
2023-01-15T13:32:08.399Z,-19
2023-01-15T13:33:14.663Z,-21
2023-01-15T13:34:20.939Z,-20
2023-01-15T13:35:27.221Z,-21
2023-01-15T13:36:33.481Z,-20
2023-01-15T13:37:39.766Z,-20
2023-01-15T13:38:46.044Z,-20
2023-01-15T13:39:51.432Z,-20
2023-01-15T13:40:57.695Z,-20
2023-01-15T13:42:03.861Z,-19
2023-01-15T13:43:10.151Z,-21
2023-01-15T13:44:16.406Z,-20
2023-01-15T13:45:22.700Z,-21
2023-01-15T13:46:28.946Z,-20
2023-01-15T13:47:34.296Z,-22
2023-01-15T13:48:39.600Z,-23
2023-01-15T13:49:44.828Z,-21
2023-01-15T13:50:50.127Z,-21
2023-01-15T13:51:56.403Z,-21
2023-01-15T13:53:02.667Z,-21
2023-01-15T13:54:08.937Z,-21
2023-01-15T13:55:15.215Z,-21
2023-01-15T13:56:21.550Z,-21
2023-01-15T13:57:27.768Z,-18
2023-01-15T13:58:34.058Z,-20
2023-01-15T13:59:40.402Z,-21
2023-01-15T14:00:46.635Z,-21
2023-01-15T14:01:52.843Z,-20
2023-01-15T14:02:59.159Z,-21
2023-01-15T14:04:05.393Z,-20
2023-01-15T14:05:10.769Z,-20
2023-01-15T14:06:17.082Z,-21
2023-01-15T14:07:23.219Z,-20
2023-01-15T14:08:29.488Z,-20
2023-01-15T14:09:35.761Z,-21
2023-01-15T14:10:42.048Z,-21
2023-01-15T14:11:48.440Z,-21
2023-01-15T14:12:53.666Z,-21
2023-01-15T14:13:58.948Z,-20
2023-01-15T14:15:05.206Z,-20
2023-01-15T14:16:11.538Z,-21
2023-01-15T14:17:16.790Z,-20
2023-01-15T14:18:22.168Z,-20
2023-01-15T14:19:28.304Z,-21
2023-01-15T14:20:34.618Z,-19
2023-01-15T14:21:40.850Z,-20
2023-01-15T14:22:47.171Z,-21
2023-01-15T14:23:53.389Z,-21
2023-01-15T14:24:59.669Z,-20
2023-01-15T14:26:05.943Z,-21
2023-01-15T14:27:12.227Z,-21
2023-01-15T14:28:18.493Z,-18
2023-01-15T14:29:24.758Z,-20
2023-01-15T14:30:31.020Z,-21
2023-01-15T14:31:37.451Z,-22
2023-01-15T14:32:42.649Z,-20
2023-01-15T14:33:48.860Z,-20
2023-01-15T14:34:55.125Z,-21
2023-01-15T14:36:01.411Z,-21
2023-01-15T14:37:07.742Z,-21
2023-01-15T14:38:14.040Z,-19
2023-01-15T14:39:20.219Z,-21
2023-01-15T14:40:25.516Z,-21
2023-01-15T14:41:30.862Z,-21
2023-01-15T14:42:36.105Z,-20
2023-01-15T14:43:41.397Z,-21
2023-01-15T14:44:47.681Z,-20
2023-01-15T14:45:53.934Z,-20
2023-01-15T14:47:00.252Z,-20
2023-01-15T14:48:06.470Z,-21
2023-01-15T14:49:12.764Z,-21
2023-01-15T14:50:19.024Z,-21
2023-01-15T14:51:25.301Z,-21
2023-01-15T14:52:31.567Z,-21
2023-01-15T14:53:37.855Z,-21
2023-01-15T14:54:44.109Z,-21
2023-01-15T14:55:50.474Z,-20
2023-01-15T14:56:56.699Z,-20
2023-01-15T14:58:02.059Z,-21
2023-01-15T14:59:08.228Z,-21
2023-01-15T15:00:14.543Z,-21
2023-01-15T15:01:20.782Z,-21
2023-01-15T15:02:27.050Z,-22
2023-01-15T15:03:33.329Z,-21
2023-01-15T15:04:39.653Z,-21
2023-01-15T15:05:45.856Z,-21
2023-01-15T15:06:52.134Z,-21
2023-01-15T15:07:58.387Z,-20
2023-01-15T15:09:04.666Z,-21
2023-01-15T15:10:10.947Z,-21
2023-01-15T15:11:17.233Z,-21
2023-01-15T15:12:22.505Z,-21
2023-01-15T15:13:28.779Z,-21
2023-01-15T15:14:35.047Z,-21
2023-01-15T15:15:41.419Z,-21
2023-01-15T15:16:47.642Z,-21
2023-01-15T15:17:53.860Z,-21
2023-01-15T15:19:00.213Z,-21
2023-01-15T15:20:06.414Z,-20
2023-01-15T15:21:12.826Z,-21
2023-01-15T15:22:19.084Z,-21
2023-01-15T15:23:25.246Z,-21
2023-01-15T15:24:31.493Z,-20
2023-01-15T15:25:37.768Z,-21
2023-01-15T15:26:43.081Z,-19
2023-01-15T15:27:49.335Z,-21
2023-01-15T15:28:55.598Z,-21
2023-01-15T15:30:01.941Z,-21
2023-01-15T15:31:08.175Z,-21
2023-01-15T15:32:14.435Z,-21
2023-01-15T15:33:20.689Z,-20
2023-01-15T15:35:33.228Z,-22